< < Back
Terminal Aerodrome Forecast


Current Version              Previous Versions:   1  2  3  4  5  6  7  8  9  

Terminal Aerodrome Forecast

403
FTUS44 KBMX 260520
TAFANB
TAF
KANB 260520Z 2606/2706 00000KT P6SM BKN070
     FM261600 10006KT P6SM SCT050 SCT250=

Latest METAR

571
SAUS70 KWBC 260600 RRA
MTRANB
METAR KANB 260553Z AUTO 00000KT 10SM OVC080 25/23 A3012 RMK AO2 SLP187
T02500228 10322 20250 403500239 50002


USA.gov is the U.S. government's official web portal to all federal, state and local government web resources and services.